Time;durP1;ratioP1;P1;durP2;ratioP2;P2;SDS_P1;SDS_P2;PMS_P1;PMS_P2;Temp;Humidity;BMP_temperature;BMP_pressure;BME280_temperature;BME280_humidity;BME280_pressure;Samples;Min_cycle;Max_cycle;Signal;HPM_P1;HPM_P2
2023/11/08 08:46:48;;;;;;;8.77;6.47;;;;;;;11.40;100.00;100153.35;1387302;86;21773;31
2023/11/08 08:49:15;;;;;;;12.27;4.57;;;;;;;11.32;100.00;100153.31;1440888;90;21422;-85
2023/11/08 08:51:41;;;;;;;7.13;5.23;;;;;;;11.27;100.00;100159.90;1434767;91;21650;-86
2023/11/08 08:54:08;;;;;;;5.37;3.83;;;;;;;11.28;100.00;100152.31;1440335;91;21972;-85
2023/11/08 08:56:34;;;;;;;8.03;4.23;;;;;;;11.29;100.00;100156.61;1428398;92;21451;-85
2023/11/08 08:59:01;;;;;;;6.40;4.43;;;;;;;11.26;100.00;100151.63;1417727;92;21346;-85
2023/11/08 09:01:27;;;;;;;7.63;4.77;;;;;;;11.20;100.00;100154.09;1435374;90;22300;-84
2023/11/08 09:03:53;;;;;;;8.57;5.37;;;;;;;11.20;100.00;100157.56;1441926;90;21481;-84
2023/11/08 09:06:20;;;;;;;4.93;3.60;;;;;;;11.20;100.00;100158.89;1430886;91;22070;-84
2023/11/08 09:08:47;;;;;;;5.27;4.10;;;;;;;11.22;100.00;100156.92;1411156;91;21443;-83
2023/11/08 09:11:14;;;;;;;6.23;4.03;;;;;;;11.22;100.00;100156.06;1436578;91;21318;-84
2023/11/08 09:13:40;;;;;;;4.10;3.17;;;;;;;11.23;100.00;100155.92;1438001;90;21459;-84
2023/11/08 09:16:07;;;;;;;2.97;2.67;;;;;;;11.23;100.00;100155.92;1436785;91;21578;-84
2023/11/08 09:18:34;;;;;;;3.87;2.70;;;;;;;11.23;100.00;100157.24;1431272;91;22434;-84
2023/11/08 09:21:01;;;;;;;4.07;3.20;;;;;;;11.20;100.00;100157.56;1433109;90;21444;-84
2023/11/08 09:23:31;;;;;;;6.80;3.97;;;;;;;11.15;100.00;100155.05;1436533;91;21459;-84
2023/11/08 09:25:58;;;;;;;4.95;4.17;;;;;;;11.12;100.00;100166.78;1442992;91;21525;-84
2023/11/08 09:28:26;;;;;;;5.83;4.23;;;;;;;11.04;100.00;100168.06;1438631;91;21451;-85
2023/11/08 09:30:53;;;;;;;5.43;4.20;;;;;;;10.96;100.00;100173.30;1431166;90;22496;-85
2023/11/08 09:33:19;;;;;;;4.87;3.60;;;;;;;10.90;100.00;100165.98;1418084;91;21332;-86
2023/11/08 09:35:46;;;;;;;5.27;3.80;;;;;;;10.89;100.00;100166.48;1434550;90;21473;-86
2023/11/08 09:38:13;;;;;;;6.03;4.53;;;;;;;10.82;100.00;100168.11;1434811;91;21392;-88
2023/11/08 09:40:39;;;;;;;5.73;4.27;;;;;;;10.74;100.00;100168.88;1445477;91;22368;-87
2023/11/08 09:43:06;;;;;;;6.23;4.53;;;;;;;10.64;100.00;100168.12;1433013;90;21487;-87
2023/11/08 09:45:32;;;;;;;5.17;3.63;;;;;;;10.57;100.00;100166.59;1440645;91;22353;-87
2023/11/08 09:47:59;;;;;;;4.93;3.87;;;;;;;10.56;100.00;100165.45;1437186;90;21385;-86
2023/11/08 09:50:27;;;;;;;6.17;3.80;;;;;;;10.51;100.00;100158.45;1438043;91;21364;-86
2023/11/08 09:52:53;;;;;;;7.90;5.67;;;;;;;10.51;100.00;100165.89;1433552;91;22338;-85
2023/11/08 09:55:20;;;;;;;13.93;8.93;;;;;;;10.53;100.00;100172.34;1434881;91;21407;-87
2023/11/08 09:57:48;;;;;;;10.07;7.50;;;;;;;10.52;100.00;100168.05;1431442;91;21568;-86
2023/11/08 10:00:19;;;;;;;10.60;8.07;;;;;;;10.49;100.00;100169.67;1439970;89;22440;-87
2023/11/08 10:02:47;;;;;;;9.48;6.85;;;;;;;10.45;100.00;100174.95;1433492;91;21502;-87
2023/11/08 10:05:13;;;;;;;12.53;7.53;;;;;;;10.40;100.00;100160.84;1431363;91;21499;-86
2023/11/08 10:07:41;;;;;;;10.47;7.13;;;;;;;10.35;100.00;100163.93;1434092;91;21384;-87
2023/11/08 10:10:08;;;;;;;12.97;7.40;;;;;;;10.31;100.00;100162.59;1435485;91;22278;-87
2023/11/08 10:12:34;;;;;;;10.70;7.20;;;;;;;10.27;100.00;100167.86;1439608;90;22390;-87
2023/11/08 10:15:03;;;;;;;11.17;7.37;;;;;;;10.26;100.00;100166.14;1439706;91;21386;-88
2023/11/08 10:17:41;;;;;;;13.70;7.63;;;;;;;10.28;100.00;100171.33;1434001;90;21562;-86
2023/11/08 10:20:10;;;;;;;8.57;7.20;;;;;;;10.26;100.00;100164.81;1433686;90;21406;-90
2023/11/08 10:22:37;;;;;;;13.57;7.37;;;;;;;10.25;100.00;100175.07;1426880;90;21341;-88
2023/11/08 10:25:05;;;;;;;10.57;6.83;;;;;;;10.29;100.00;100171.66;1434050;91;21493;-87
2023/11/08 10:27:34;;;;;;;8.93;7.33;;;;;;;10.35;100.00;100175.84;1432165;91;21326;-86
2023/11/08 10:30:19;;;;;;;8.93;6.23;;;;;;;10.41;100.00;100173.57;1428048;91;21370;-88
2023/11/08 10:32:47;;;;;;;7.20;5.10;;;;;;;10.37;100.00;100172.55;1416655;91;22330;-87
2023/11/08 10:35:19;;;;;;;13.77;7.03;;;;;;;10.29;100.00;100175.13;1434432;90;21658;-86
2023/11/08 10:37:50;;;;;;;6.77;4.57;;;;;;;10.39;100.00;100178.53;1437538;91;21452;-87
2023/11/08 10:40:18;;;;;;;10.40;6.45;;;;;;;10.30;100.00;100179.45;1434278;91;21475;-88
2023/11/08 10:42:52;;;;;;;9.50;5.33;;;;;;;10.25;100.00;100186.97;1430888;91;22330;-87
2023/11/08 10:45:20;;;;;;;11.90;6.27;;;;;;;10.25;100.00;100205.48;1430602;90;21348;-88
2023/11/08 10:47:48;;;;;;;5.60;3.90;;;;;;;10.13;100.00;100205.38;1429778;91;21548;-89
2023/11/08 10:50:20;;;;;;;11.77;5.10;;;;;;;9.92;100.00;100211.75;1439023;91;22411;-88
2023/11/08 10:52:47;;;;;;;5.60;4.03;;;;;;;9.99;100.00;100209.86;1434644;91;21392;-88
2023/11/08 10:55:15;;;;;;;9.48;5.90;;;;;;;9.98;100.00;100213.45;1437707;90;21465;-89
2023/11/08 10:57:52;;;;;;;7.30;4.87;;;;;;;9.90;100.00;100216.37;1435150;90;21414;-89
2023/11/08 11:00:21;;;;;;;7.93;5.20;;;;;;;9.76;100.00;100206.30;1432074;91;22345;-89
2023/11/08 11:02:57;;;;;;;7.67;5.03;;;;;;;9.88;100.00;100211.71;1426865;91;21400;-87
2023/11/08 11:05:24;;;;;;;6.20;4.97;;;;;;;9.84;100.00;100216.97;1434565;91;21570;-88
2023/11/08 11:07:57;;;;;;;6.20;4.63;;;;;;;9.93;100.00;100225.33;1443127;91;21333;-88
2023/11/08 11:10:20;;;;;;;10.67;5.07;;;;;;;10.03;100.00;100227.07;1403473;91;21465;-86
2023/11/08 11:13:11;;;;;;;8.77;4.60;;;;;;;10.06;100.00;100221.48;1436391;91;21465;-86
2023/11/08 11:16:01;;;;;;;8.10;4.77;;;;;;;10.16;100.00;100227.55;1440407;90;21613;-90
2023/11/08 11:18:34;;;;;;;5.90;4.00;;;;;;;10.21;100.00;100226.59;1429247;91;21378;-89
2023/11/08 11:21:27;;;;;;;6.33;4.30;;;;;;;10.22;100.00;100224.30;1433665;91;21408;-90
2023/11/08 11:23:54;;;;;;;10.17;4.57;;;;;;;10.22;100.00;100226.95;1429535;90;21631;-89
2023/11/08 11:26:44;;;;;;;4.47;3.40;;;;;;;10.17;100.00;100227.88;1416051;91;21428;-89
2023/11/08 11:29:18;;;;;;;5.90;3.90;;;;;;;10.15;100.00;100229.84;1428903;91;21363;-88
2023/11/08 11:31:45;;;;;;;8.63;3.67;;;;;;;10.13;100.00;100230.50;1433895;90;21503;-89
2023/11/08 11:34:26;;;;;;;6.67;4.27;;;;;;;10.15;100.00;100234.63;1440441;91;22263;-91
2023/11/08 11:37:13;;;;;;;6.77;3.53;;;;;;;10.17;100.00;100237.14;1432638;90;21605;-88
2023/11/08 11:39:44;;;;;;;5.90;3.27;;;;;;;10.17;100.00;100246.39;1434359;90;21377;-89
2023/11/08 11:42:19;;;;;;;6.90;4.27;;;;;;;10.19;100.00;100240.97;1418684;91;22526;-88
2023/11/08 11:44:56;;;;;;;5.50;4.53;;;;;;;10.21;100.00;100246.42;1438241;90;21370;-88
2023/11/08 11:47:28;;;;;;;8.13;4.30;;;;;;;10.26;100.00;100248.14;1437971;91;21370;-88
2023/11/08 11:50:02;;;;;;;5.37;4.37;;;;;;;10.28;100.00;100248.03;1420914;91;22346;-88
2023/11/08 11:52:31;;;;;;;5.67;4.13;;;;;;;10.27;100.00;100248.53;1427039;91;21498;-87
2023/11/08 11:54:59;;;;;;;3.63;3.23;;;;;;;10.34;100.00;100252.22;1435047;91;21348;-89
2023/11/08 11:57:29;;;;;;;6.47;3.30;;;;;;;10.41;100.00;100254.27;1437641;91;22398;-88
2023/11/08 11:59:59;;;;;;;5.80;3.37;;;;;;;10.48;100.00;100264.59;1441554;91;21399;-89
2023/11/08 12:02:28;;;;;;;6.73;3.67;;;;;;;10.56;100.00;100265.51;1432876;91;21495;-87
2023/11/08 12:04:58;;;;;;;6.80;5.07;;;;;;;10.63;100.00;100264.89;1435469;90;21421;-90
2023/11/08 12:07:24;;;;;;;6.70;4.63;;;;;;;10.70;100.00;100265.44;1431286;90;21503;-88
2023/11/08 12:09:51;;;;;;;8.10;4.70;;;;;;;10.77;100.00;100263.86;1435386;91;22315;-86
2023/11/08 12:12:30;;;;;;;14.77;9.40;;;;;;;10.89;100.00;100271.56;1438522;91;21437;-88
2023/11/08 12:14:57;;;;;;;10.50;5.33;;;;;;;10.94;100.00;100271.95;1439783;91;21510;-89
2023/11/08 12:17:24;;;;;;;8.00;3.83;;;;;;;10.99;100.00;100267.00;1436282;90;22360;-88
2023/11/08 12:19:50;;;;;;;5.07;3.30;;;;;;;11.01;100.00;100265.86;1420640;91;21554;-90
2023/11/08 12:22:17;;;;;;;6.30;4.50;;;;;;;11.09;100.00;100266.42;1445057;91;22330;-88
2023/11/08 12:24:43;;;;;;;7.77;4.63;;;;;;;11.15;100.00;100271.09;1431986;91;21510;-88
2023/11/08 12:27:09;;;;;;;7.17;4.87;;;;;;;11.27;100.00;100274.31;1436254;91;21355;-88
2023/11/08 12:29:37;;;;;;;6.63;3.67;;;;;;;11.43;100.00;100272.28;1421557;91;21362;-88
2023/11/08 12:32:04;;;;;;;4.33;2.93;;;;;;;11.51;100.00;100273.66;1442913;90;21450;-89
2023/11/08 12:34:31;;;;;;;4.57;2.87;;;;;;;11.57;100.00;100282.80;1440099;91;21541;-87
2023/11/08 12:36:57;;;;;;;7.37;3.97;;;;;;;11.57;100.00;100283.63;1433758;91;22574;-85
2023/11/08 12:39:28;;;;;;;4.63;2.60;;;;;;;11.61;100.00;100286.78;1438192;90;21363;-86
2023/11/08 12:41:56;;;;;;;4.95;3.00;;;;;;;11.57;100.00;100288.92;1426095;90;21385;-85
2023/11/08 12:44:24;;;;;;;5.13;3.20;;;;;;;11.54;100.00;100299.84;1445300;90;21561;-86
2023/11/08 12:46:59;;;;;;;5.07;3.77;;;;;;;11.50;100.00;100303.27;1436039;91;22353;-86
2023/11/08 12:49:33;;;;;;;5.07;4.00;;;;;;;11.41;100.00;100308.69;1443865;90;22351;-85
2023/11/08 12:52:14;;;;;;;7.37;4.03;;;;;;;11.34;100.00;100316.44;1428469;91;21451;-86
2023/11/08 12:54:37;;;;;;;6.93;5.30;;;;;;;11.28;100.00;100311.27;1434117;91;21629;-85
2023/11/08 12:57:04;;;;;;;9.60;6.40;;;;;;;11.18;100.00;100310.52;1434015;90;21466;-86
2023/11/08 12:59:30;;;;;;;9.00;5.70;;;;;;;11.15;100.00;100316.13;1428935;90;21939;-85
2023/11/08 13:02:10;;;;;;;10.23;5.13;;;;;;;11.10;100.00;100314.92;1419760;91;22448;-81
2023/11/08 13:04:42;;;;;;;11.00;6.47;;;;;;;11.02;100.00;100307.77;1430817;91;21296;-79
2023/11/08 13:07:08;;;;;;;8.37;6.00;;;;;;;10.95;100.00;100311.99;1434813;91;22397;-80
2023/11/08 13:09:35;;;;;;;10.70;6.93;;;;;;;10.86;100.00;100311.59;1442797;91;21546;-80
2023/11/08 13:12:04;;;;;;;10.00;6.67;;;;;;;10.80;100.00;100316.50;1428531;91;21503;-80
2023/11/08 13:14:30;;;;;;;8.70;6.03;;;;;;;10.75;100.00;100320.09;1423423;91;22160;-80
2023/11/08 13:16:56;;;;;;;10.37;6.63;;;;;;;10.71;100.00;100324.03;1434668;91;21384;-80
2023/11/08 13:19:23;;;;;;;8.57;5.83;;;;;;;10.70;100.00;100322.84;1434613;91;21503;-80
2023/11/08 13:21:49;;;;;;;10.57;5.87;;;;;;;10.68;100.00;100323.52;1433709;91;21362;-80
2023/11/08 13:24:15;;;;;;;8.93;6.67;;;;;;;10.65;100.00;100311.91;1437287;90;21429;-81
2023/11/08 13:26:41;;;;;;;9.50;7.03;;;;;;;10.64;100.00;100329.57;1423031;91;21577;-81
2023/11/08 13:29:09;;;;;;;10.57;6.83;;;;;;;10.63;100.00;100332.38;1443030;91;21392;-84
2023/11/08 13:31:39;;;;;;;10.00;5.77;;;;;;;10.58;100.00;100336.30;1442024;91;21555;-84
2023/11/08 13:34:06;;;;;;;7.47;5.60;;;;;;;10.55;100.00;100343.70;1436979;89;21407;-83
2023/11/08 13:36:33;;;;;;;11.40;6.83;;;;;;;10.52;100.00;100347.98;1438595;91;21554;-83
2023/11/08 13:38:59;;;;;;;9.43;5.53;;;;;;;10.50;100.00;100358.73;1436299;91;21392;-81
2023/11/08 13:41:25;;;;;;;8.53;5.20;;;;;;;10.49;100.00;100361.51;1437629;90;21554;-83
2023/11/08 13:43:52;;;;;;;10.37;4.80;;;;;;;10.47;100.00;100368.75;1434234;91;21385;-83
2023/11/08 13:46:18;;;;;;;6.73;5.03;;;;;;;10.45;100.00;100372.89;1427861;91;21451;-85
2023/11/08 13:48:44;;;;;;;5.90;4.10;;;;;;;10.41;100.00;100374.64;1437294;91;21514;-84
2023/11/08 13:51:10;;;;;;;6.77;4.50;;;;;;;10.34;100.00;100377.88;1426511;91;21354;-83
2023/11/08 13:53:38;;;;;;;6.37;4.63;;;;;;;10.30;100.00;100383.14;1441434;91;21576;-82
2023/11/08 13:56:06;;;;;;;8.63;4.80;;;;;;;10.29;100.00;100380.13;1430839;91;21399;-83
2023/11/08 13:58:33;;;;;;;8.00;5.07;;;;;;;10.29;100.00;100386.74;1412526;91;21421;-82
2023/11/08 14:01:05;;;;;;;4.80;3.80;;;;;;;10.30;100.00;100388.42;1437813;90;21540;-83
2023/11/08 14:03:27;;;;;;;5.43;4.20;;;;;;;10.31;100.00;100394.05;1432786;91;21472;-83
2023/11/08 14:05:53;;;;;;;12.17;5.17;;;;;;;10.36;100.00;100395.77;1440195;90;21531;-83
2023/11/08 14:08:20;;;;;;;7.83;4.47;;;;;;;10.38;100.00;100396.44;1423259;91;21481;-83
2023/11/08 14:10:46;;;;;;;14.00;6.57;;;;;;;10.43;100.00;100400.47;1438248;91;21550;-83
2023/11/08 14:13:12;;;;;;;12.70;6.97;;;;;;;10.45;100.00;100398.02;1414945;91;22458;-84
2023/11/08 14:15:38;;;;;;;9.50;5.23;;;;;;;10.47;100.00;100396.53;1441332;90;21370;-84
2023/11/08 14:18:07;;;;;;;9.37;6.07;;;;;;;10.47;100.00;100400.50;1433848;91;21558;-84
2023/11/08 14:20:33;;;;;;;10.47;5.67;;;;;;;10.48;100.00;100404.84;1441545;90;21274;-83
2023/11/08 14:22:59;;;;;;;5.73;4.17;;;;;;;10.48;100.00;100409.63;1439093;91;21332;-83
2023/11/08 14:25:25;;;;;;;7.73;5.10;;;;;;;10.50;100.00;100412.12;1435196;91;21562;-84
2023/11/08 14:27:51;;;;;;;39.90;21.67;;;;;;;10.51;100.00;100409.84;1434829;91;22461;-84
2023/11/08 14:30:17;;;;;;;12.20;8.20;;;;;;;10.54;100.00;100416.16;1431627;91;21407;-84
2023/11/08 14:32:43;;;;;;;17.00;8.73;;;;;;;10.56;100.00;100411.05;1436932;90;21603;-84
2023/11/08 14:35:10;;;;;;;24.57;14.30;;;;;;;10.58;100.00;100408.25;1424825;90;21318;-83
2023/11/08 14:37:36;;;;;;;23.27;14.13;;;;;;;10.56;100.00;100415.03;1440914;91;21579;-84
2023/11/08 14:40:05;;;;;;;35.00;18.03;;;;;;;10.54;100.00;100413.50;1436714;91;21296;-83
2023/11/08 14:42:31;;;;;;;9.37;5.60;;;;;;;10.49;100.00;100417.08;1433434;91;22330;-83
2023/11/08 14:44:58;;;;;;;7.60;4.53;;;;;;;10.46;100.00;100422.17;1427446;90;21503;-85
2023/11/08 14:47:25;;;;;;;13.97;8.27;;;;;;;10.45;100.00;100422.33;1435822;90;21466;-84
2023/11/08 14:49:53;;;;;;;7.63;4.30;;;;;;;10.43;100.00;100420.31;1432757;91;21557;-83
2023/11/08 14:52:19;;;;;;;10.27;6.57;;;;;;;10.42;100.00;100426.59;1437951;90;22383;-83
2023/11/08 14:54:47;;;;;;;9.97;8.27;;;;;;;10.41;100.00;100428.88;1440347;91;21643;-84
2023/11/08 14:57:15;;;;;;;51.83;31.63;;;;;;;10.40;100.00;100425.41;1430988;90;22308;-83
2023/11/08 14:59:42;;;;;;;92.57;55.73;;;;;;;10.38;100.00;100422.89;1438555;90;21348;-83
2023/11/08 15:02:10;;;;;;;64.03;38.73;;;;;;;10.37;100.00;100422.56;1411610;91;21407;-83
2023/11/08 15:04:42;;;;;;;45.33;28.97;;;;;;;10.33;100.00;100427.81;1444708;91;21443;-84
2023/11/08 15:07:08;;;;;;;18.87;13.97;;;;;;;10.32;100.00;100427.95;1431844;90;22055;-82
2023/11/08 15:09:34;;;;;;;19.97;12.17;;;;;;;10.31;100.00;100431.09;1435964;91;22330;-83
2023/11/08 15:12:01;;;;;;;13.53;8.53;;;;;;;10.29;100.00;100430.39;1431700;91;21510;-83
2023/11/08 15:14:28;;;;;;;10.40;7.27;;;;;;;10.28;100.00;100433.19;1429526;91;21348;-83
2023/11/08 15:16:54;;;;;;;13.50;6.93;;;;;;;10.28;100.00;100437.16;1418123;91;22301;-84
2023/11/08 15:19:21;;;;;;;14.87;8.10;;;;;;;10.29;100.00;100434.36;1428169;90;21466;-84
2023/11/08 15:21:47;;;;;;;23.93;14.27;;;;;;;10.29;100.00;100438.81;1430250;91;22426;-83
2023/11/08 15:24:14;;;;;;;59.87;29.60;;;;;;;10.27;100.00;100441.63;1432888;90;21362;-83
2023/11/08 15:26:41;;;;;;;79.53;46.90;;;;;;;10.26;100.00;100438.58;1437504;90;21547;-82
2023/11/08 15:29:07;;;;;;;57.20;35.83;;;;;;;10.24;100.00;100439.23;1432091;90;22404;-83
2023/11/08 15:31:34;;;;;;;55.30;31.07;;;;;;;10.20;100.00;100439.17;1444290;90;21392;-80
2023/11/08 15:34:00;;;;;;;96.93;54.67;;;;;;;10.19;100.00;100445.45;1431229;91;22596;-84
2023/11/08 15:36:26;;;;;;;118.10;66.53;;;;;;;10.17;100.00;100446.90;1434164;91;21421;-84
2023/11/08 15:38:53;;;;;;;83.50;48.83;;;;;;;10.17;100.00;100444.75;1410176;91;21289;-83
2023/11/08 15:41:23;;;;;;;45.10;24.27;;;;;;;10.20;100.00;100446.27;1438356;90;21318;-83
2023/11/08 15:43:54;;;;;;;16.27;12.13;;;;;;;10.22;100.00;100449.62;1433691;91;21534;-83
2023/11/08 15:46:21;;;;;;;14.93;9.90;;;;;;;10.23;100.00;100445.48;1433494;91;22374;-84
2023/11/08 15:48:49;;;;;;;13.10;9.40;;;;;;;10.24;100.00;100445.85;1433099;91;21620;-83
2023/11/08 15:51:17;;;;;;;15.33;11.30;;;;;;;10.22;100.00;100447.80;1437564;90;21362;-80
2023/11/08 15:53:44;;;;;;;13.53;11.27;;;;;;;10.19;100.00;100452.06;1427717;91;21658;-80
2023/11/08 15:56:12;;;;;;;16.20;10.50;;;;;;;10.19;100.00;100457.84;1432323;91;22288;-80
2023/11/08 15:58:40;;;;;;;14.77;9.73;;;;;;;10.19;100.00;100465.28;1433049;90;21414;-80
2023/11/08 16:01:06;;;;;;;21.90;14.40;;;;;;;10.18;100.00;100462.27;1439399;91;21399;-80
2023/11/08 16:03:33;;;;;;;18.53;14.17;;;;;;;10.17;100.00;100465.91;1437852;91;21621;-80
2023/11/08 16:05:59;;;;;;;19.93;12.50;;;;;;;10.17;100.00;100467.23;1426915;91;22336;-81
2023/11/08 16:08:25;;;;;;;25.70;15.23;;;;;;;10.18;100.00;100470.20;1431597;90;21457;-80
2023/11/08 16:10:54;;;;;;;34.13;21.80;;;;;;;10.17;100.00;100468.55;1428190;91;21400;-80
2023/11/08 16:13:24;;;;;;;46.17;25.73;;;;;;;10.17;100.00;100476.48;1430005;90;21385;-81
2023/11/08 16:15:52;;;;;;;74.77;42.00;;;;;;;10.16;100.00;100472.19;1364774;90;22073;-81
2023/11/08 16:18:18;;;;;;;70.40;40.17;;;;;;;10.16;100.00;100469.55;1344598;92;21296;-81
2023/11/08 16:20:46;;;;;;;55.83;33.03;;;;;;;10.16;100.00;100468.22;1368076;91;22139;-81
2023/11/08 16:23:12;;;;;;;55.60;31.33;;;;;;;10.15;100.00;100470.00;1360999;90;21482;-82
2023/11/08 16:25:38;;;;;;;40.30;25.93;;;;;;;10.17;100.00;100464.09;1433141;91;22813;-84
2023/11/08 16:28:05;;;;;;;64.97;36.87;;;;;;;10.21;100.00;100473.05;1436561;91;21606;-81
2023/11/08 16:30:31;;;;;;;62.73;37.00;;;;;;;10.23;100.00;100475.08;1435816;91;22405;-81
2023/11/08 16:32:58;;;;;;;91.30;49.43;;;;;;;10.20;100.00;100470.91;1439632;91;21370;-80
2023/11/08 16:35:24;;;;;;;79.83;44.60;;;;;;;10.21;100.00;100469.92;1427178;91;22471;-80
2023/11/08 16:37:50;;;;;;;76.00;43.03;;;;;;;10.17;100.00;100469.88;1433376;90;21580;-79
2023/11/08 16:40:17;;;;;;;55.33;30.73;;;;;;;10.10;100.00;100475.41;1430046;90;21399;-80
2023/11/08 16:42:44;;;;;;;58.07;32.43;;;;;;;10.05;100.00;100468.38;1435546;91;21465;-79
2023/11/08 16:45:11;;;;;;;53.50;30.03;;;;;;;10.03;100.00;100469.01;1437582;91;22490;-79
2023/11/08 16:47:37;;;;;;;40.23;25.67;;;;;;;10.04;100.00;100468.02;1432471;90;21555;-80
2023/11/08 16:50:05;;;;;;;40.03;22.77;;;;;;;10.04;100.00;100470.66;1424802;90;21451;-81
2023/11/08 16:52:31;;;;;;;27.60;16.77;;;;;;;10.03;100.00;100467.69;1433299;91;21525;-81
2023/11/08 16:54:57;;;;;;;28.33;16.77;;;;;;;10.04;100.00;100468.88;1432009;91;21532;-80
2023/11/08 16:57:23;;;;;;;24.73;15.33;;;;;;;10.04;100.00;100473.30;1437622;91;22558;-80
2023/11/08 16:59:50;;;;;;;23.83;17.03;;;;;;;9.99;100.00;100461.86;1411209;91;21436;-79
2023/11/08 17:02:16;;;;;;;25.90;17.93;;;;;;;9.93;100.00;100464.58;1444836;90;21407;-81
2023/11/08 17:04:42;;;;;;;26.90;19.13;;;;;;;9.86;100.00;100466.11;1436143;91;21407;-78
2023/11/08 17:07:09;;;;;;;20.63;13.43;;;;;;;9.80;100.00;100471.97;1413743;91;22353;-80
2023/11/08 17:09:37;;;;;;;13.70;8.47;;;;;;;9.73;100.00;100475.34;1445734;91;21362;-81
2023/11/08 17:12:07;;;;;;;14.73;9.00;;;;;;;9.65;100.00;100474.70;1402265;90;22419;-81
2023/11/08 17:14:35;;;;;;;11.97;8.77;;;;;;;9.61;100.00;100474.16;1429195;91;21428;-80
2023/11/08 17:17:01;;;;;;;12.63;9.27;;;;;;;9.57;100.00;100473.25;1441295;90;22522;-80
2023/11/08 17:23:28;;;;;;;20.57;14.00;;;;;;;9.47;100.00;100482.02;1424462;91;21488;-81
2023/11/08 17:25:54;;;;;;;23.33;17.97;;;;;;;9.35;100.00;100483.14;1435776;91;21362;-80
2023/11/08 17:28:21;;;;;;;25.67;16.47;;;;;;;9.36;100.00;100485.28;1428559;91;22482;-79
2023/11/08 17:30:47;;;;;;;26.27;16.90;;;;;;;9.37;100.00;100499.66;1435018;91;21354;-80
2023/11/08 17:33:13;;;;;;;27.13;17.43;;;;;;;9.37;100.00;100497.02;1432149;91;21400;-81
2023/11/08 17:35:40;;;;;;;19.57;15.60;;;;;;;9.34;100.00;100494.66;1431030;91;21576;-80
2023/11/08 17:38:06;;;;;;;41.27;30.67;;;;;;;9.31;100.00;100511.27;1430281;90;21480;-80
2023/11/08 17:40:32;;;;;;;49.80;30.93;;;;;;;9.23;100.00;100510.63;1428354;90;21474;-79
2023/11/08 17:42:59;;;;;;;44.63;21.70;;;;;;;9.19;100.00;100515.84;1440255;90;21429;-80
2023/11/08 17:45:29;;;;;;;29.13;18.23;;;;;;;9.14;100.00;100515.41;1441045;91;23149;-79
2023/11/08 17:47:53;;;;;;;28.90;17.10;;;;;;;9.10;100.00;100514.85;1425991;91;21456;-81
2023/11/08 17:50:19;;;;;;;33.40;18.93;;;;;;;9.06;100.00;100524.48;1415541;91;21612;-80
2023/11/08 17:52:46;;;;;;;31.83;18.13;;;;;;;9.09;100.00;100526.85;1421324;91;21458;-80
2023/11/08 17:55:13;;;;;;;30.03;18.80;;;;;;;9.15;100.00;100526.31;1435735;90;21598;-80
2023/11/08 17:57:39;;;;;;;27.00;19.27;;;;;;;9.20;100.00;100524.10;1428562;91;22692;-80
2023/11/08 18:00:07;;;;;;;30.90;20.80;;;;;;;9.23;100.00;100526.47;1437132;91;21399;-81
2023/11/08 18:02:33;;;;;;;62.40;36.77;;;;;;;9.22;100.00;100526.95;1430198;90;21392;-80
2023/11/08 18:04:59;;;;;;;65.90;37.17;;;;;;;9.20;100.00;100530.70;1432549;90;21919;-80
2023/11/08 18:07:26;;;;;;;37.80;25.37;;;;;;;9.18;100.00;100530.03;1441381;91;21558;-81
2023/11/08 18:09:52;;;;;;;35.07;20.93;;;;;;;9.15;100.00;100531.59;1438470;90;21370;-80
2023/11/08 18:12:19;;;;;;;31.90;19.97;;;;;;;9.09;100.00;100521.57;1434656;90;22440;-79
2023/11/08 18:14:45;;;;;;;31.87;22.17;;;;;;;9.06;100.00;100523.17;1433195;91;21443;-80
2023/11/08 18:17:11;;;;;;;31.20;19.53;;;;;;;9.03;100.00;100525.13;1421994;91;21540;-81
2023/11/08 18:19:37;;;;;;;31.33;18.67;;;;;;;9.02;100.00;100520.80;1433319;91;21524;-79
2023/11/08 18:22:03;;;;;;;26.17;17.63;;;;;;;8.96;100.00;100520.52;1431231;91;21407;-80
2023/11/08 18:24:34;;;;;;;31.13;20.93;;;;;;;8.91;100.00;100518.75;1432664;90;22573;-81
2023/11/08 18:26:59;;;;;;;34.17;21.47;;;;;;;8.85;100.00;100528.53;1425839;91;22279;-80
2023/11/08 18:29:25;;;;;;;43.67;25.80;;;;;;;8.75;100.00;100525.38;1434458;89;21355;-81
2023/11/08 18:31:53;;;;;;;39.23;26.40;;;;;;;8.67;100.00;100529.66;1422765;91;21361;-80
2023/11/08 18:34:19;;;;;;;41.63;25.60;;;;;;;8.59;100.00;100533.78;1431754;90;22743;-81
2023/11/08 18:36:45;;;;;;;38.07;25.80;;;;;;;8.52;100.00;100533.14;1430736;91;21451;-80
2023/11/08 18:39:12;;;;;;;55.73;32.37;;;;;;;8.45;100.00;100531.97;1434499;91;22265;-80
2023/11/08 18:41:38;;;;;;;51.37;33.17;;;;;;;8.40;100.00;100524.48;1433202;91;21488;-80
2023/11/08 18:44:04;;;;;;;54.90;33.77;;;;;;;8.37;100.00;100528.63;1429237;90;21383;-78
2023/11/08 18:46:31;;;;;;;57.77;32.70;;;;;;;8.29;100.00;100525.84;1413761;91;21436;-79
2023/11/08 18:48:58;;;;;;;45.43;30.03;;;;;;;8.25;100.00;100536.27;1419818;91;21444;-79
2023/11/08 18:51:24;;;;;;;56.07;36.43;;;;;;;8.22;100.00;100536.54;1433178;91;21532;-80
2023/11/08 18:53:50;;;;;;;54.77;34.70;;;;;;;8.19;100.00;100548.66;1426773;91;21384;-81
2023/11/08 18:56:19;;;;;;;64.33;37.53;;;;;;;8.10;100.00;100548.47;1429887;90;22384;-80
2023/11/08 18:58:49;;;;;;;59.33;34.50;;;;;;;8.03;100.00;100555.23;1435899;91;22413;-80
2023/11/08 19:01:13;;;;;;;68.70;38.07;;;;;;;7.96;100.00;100558.00;1427780;91;21391;-80
2023/11/08 19:03:40;;;;;;;84.60;48.27;;;;;;;7.92;100.00;100568.45;1434480;91;22250;-78
2023/11/08 19:06:06;;;;;;;92.07;48.87;;;;;;;7.85;100.00;100563.33;1433088;90;21466;-80
2023/11/08 19:08:35;;;;;;;82.87;49.80;;;;;;;7.80;100.00;100562.89;1431283;91;21683;-79
2023/11/08 19:11:03;;;;;;;94.23;50.73;;;;;;;7.74;100.00;100564.69;1440883;91;21407;-79
2023/11/08 19:13:32;;;;;;;55.60;34.40;;;;;;;7.68;100.00;100561.62;1434676;91;22965;-80
2023/11/08 19:15:59;;;;;;;72.93;39.27;;;;;;;7.64;100.00;100564.62;1433883;90;21399;-81
2023/11/08 19:18:25;;;;;;;61.13;38.63;;;;;;;7.59;100.00;100570.73;1432603;90;21614;-81
2023/11/08 19:20:51;;;;;;;60.93;38.30;;;;;;;7.53;100.00;100572.55;1429355;91;22294;-80
2023/11/08 19:23:18;;;;;;;63.50;38.20;;;;;;;7.46;100.00;100579.64;1436249;90;21474;-80
2023/11/08 19:25:44;;;;;;;58.17;33.77;;;;;;;7.39;100.00;100576.30;1425582;91;21370;-80
2023/11/08 19:28:11;;;;;;;61.30;37.83;;;;;;;7.32;100.00;100580.39;1432063;91;21474;-80
2023/11/08 19:30:37;;;;;;;57.00;33.53;;;;;;;7.27;100.00;100579.44;1428313;91;21436;-81
2023/11/08 19:33:07;;;;;;;68.70;38.10;;;;;;;7.21;100.00;100575.49;1432102;90;22420;-80
2023/11/08 19:35:33;;;;;;;51.53;29.50;;;;;;;7.16;100.00;100584.26;1417729;91;21450;-78
2023/11/08 19:38:02;;;;;;;49.90;26.93;;;;;;;7.13;100.00;100589.73;1431633;91;22462;-81
2023/11/08 19:40:29;;;;;;;48.27;28.20;;;;;;;7.11;100.00;100590.36;1432696;91;22041;-78
2023/11/08 19:42:55;;;;;;;51.17;30.00;;;;;;;7.08;100.00;100594.55;1435223;91;21377;-79
2023/11/08 19:45:22;;;;;;;63.37;36.97;;;;;;;7.03;100.00;100595.88;1436344;91;21528;-78
2023/11/08 19:47:49;;;;;;;77.60;43.53;;;;;;;6.96;100.00;100598.12;1439044;91;21422;-79
2023/11/08 19:50:15;;;;;;;61.73;36.43;;;;;;;6.88;100.00;100600.55;1435442;90;21503;-78
2023/11/08 19:52:42;;;;;;;37.10;23.57;;;;;;;6.81;100.00;100595.38;1432072;91;21680;-79
2023/11/08 19:55:08;;;;;;;35.43;21.07;;;;;;;6.78;100.00;100593.83;1432871;91;22745;-77
2023/11/08 19:57:35;;;;;;;39.20;24.40;;;;;;;6.76;100.00;100593.95;1431662;91;21451;-79
2023/11/08 20:00:02;;;;;;;40.53;28.53;;;;;;;6.76;100.00;100595.73;1426219;91;22307;-79
2023/11/08 20:02:28;;;;;;;31.93;20.20;;;;;;;6.76;100.00;100593.95;1432442;90;22109;-79
2023/11/08 20:04:54;;;;;;;29.43;19.33;;;;;;;6.78;100.00;100603.03;1429860;91;21414;-79